createdAt,value
2022-10-06T00:01:16.406Z,1.52
2022-10-06T00:06:18.205Z,1.42
2022-10-06T00:11:19.689Z,1.63
2022-10-06T00:16:25.245Z,1.38
2022-10-06T00:21:26.612Z,1.30
2022-10-06T00:26:27.981Z,1.50
2022-10-06T00:31:29.461Z,1.52
2022-10-06T00:36:31.074Z,1.50
2022-10-06T00:41:32.705Z,1.50
2022-10-06T00:46:40.386Z,1.63
2022-10-06T00:51:47.964Z,1.40
2022-10-06T00:56:49.369Z,1.33
2022-10-06T01:01:59.497Z,1.17
2022-10-06T01:07:01.005Z,1.15
2022-10-06T01:12:04.028Z,1.35
2022-10-06T01:17:38.981Z,1.35
2022-10-06T01:22:43.325Z,1.27
2022-10-06T01:27:50.552Z,1.40
2022-10-06T01:32:51.909Z,1.33
2022-10-06T01:37:54.562Z,1.25
2022-10-06T01:42:56.320Z,1.30
2022-10-06T01:47:57.756Z,1.58
2022-10-06T01:52:59.124Z,1.30
2022-10-06T01:58:00.498Z,1.20
2022-10-06T02:03:01.892Z,1.30
2022-10-06T02:08:03.256Z,1.50
2022-10-06T02:13:04.988Z,1.30
2022-10-06T02:18:06.423Z,1.20
2022-10-06T02:23:07.778Z,1.40
2022-10-06T02:28:09.221Z,1.35
2022-10-06T02:33:10.609Z,1.45
2022-10-06T02:38:12.485Z,1.40
2022-10-06T02:43:13.873Z,1.30
2022-10-06T02:48:15.270Z,1.38
2022-10-06T02:53:16.737Z,1.20
2022-10-06T02:58:18.093Z,1.55
2022-10-06T03:03:19.450Z,1.13
2022-10-06T03:08:20.811Z,1.42
2022-10-06T03:13:22.174Z,1.33
2022-10-06T03:18:23.596Z,1.30
2022-10-06T03:23:25.009Z,1.20
2022-10-06T03:28:27.052Z,1.20
2022-10-06T03:33:28.900Z,1.40
2022-10-06T03:38:32.089Z,1.30
2022-10-06T03:43:34.073Z,1.40
2022-10-06T03:48:35.581Z,1.40
2022-10-06T03:53:36.997Z,1.25
2022-10-06T03:58:42.517Z,1.30
2022-10-06T04:03:44.174Z,1.27
2022-10-06T04:08:46.549Z,1.38
2022-10-06T04:13:52.078Z,1.40
2022-10-06T04:18:57.877Z,1.20
2022-10-06T04:23:59.614Z,1.60
2022-10-06T04:29:01.088Z,1.20
2022-10-06T04:34:02.662Z,1.13
2022-10-06T04:39:04.368Z,1.60
2022-10-06T04:44:05.754Z,1.45
2022-10-06T04:49:07.164Z,1.27
2022-10-06T04:54:08.524Z,1.20
2022-10-06T04:59:09.996Z,1.30
2022-10-06T05:04:11.520Z,1.30
2022-10-06T05:09:15.394Z,1.20
2022-10-06T05:14:16.757Z,1.13
2022-10-06T05:19:18.156Z,1.25
2022-10-06T05:24:22.504Z,1.10
2022-10-06T05:29:23.877Z,1.40
2022-10-06T05:34:25.249Z,1.15
2022-10-06T05:39:26.620Z,1.10
2022-10-06T05:44:27.982Z,1.00
2022-10-06T05:49:29.381Z,1.17
2022-10-06T05:54:30.776Z,1.13
2022-10-06T05:59:32.177Z,1.10
2022-10-06T06:04:33.533Z,1.10
2022-10-06T06:09:34.915Z,1.20
2022-10-06T06:14:54.592Z,1.20
2022-10-06T06:19:55.951Z,1.10
2022-10-06T06:24:57.337Z,1.20
2022-10-06T06:29:58.874Z,0.98
2022-10-06T06:35:00.361Z,1.63
2022-10-06T06:40:01.730Z,1.45
2022-10-06T06:45:03.182Z,1.30
2022-10-06T06:50:10.033Z,1.20
2022-10-06T06:55:11.413Z,0.80
2022-10-06T07:00:13.058Z,0.93
2022-10-06T07:05:14.484Z,1.00
2022-10-06T07:10:15.900Z,1.35
2022-10-06T07:15:35.870Z,1.20
2022-10-06T07:20:55.536Z,1.00
2022-10-06T07:25:56.900Z,1.20
2022-10-06T07:31:00.464Z,1.42
2022-10-06T07:36:02.371Z,1.50
2022-10-06T07:41:20.273Z,1.42
2022-10-06T07:46:21.999Z,1.10
2022-10-06T07:51:27.170Z,1.20
2022-10-06T07:56:28.553Z,1.50
2022-10-06T08:01:30.230Z,1.30
2022-10-06T08:06:31.630Z,1.08
2022-10-06T08:11:33.012Z,1.10
2022-10-06T08:16:34.447Z,1.20
2022-10-06T08:21:35.892Z,0.90
2022-10-06T08:26:38.460Z,1.27
2022-10-06T08:31:39.865Z,1.10
2022-10-06T08:36:48.233Z,1.20
2022-10-06T08:42:03.632Z,1.00
2022-10-06T08:47:13.347Z,1.25
2022-10-06T08:52:47.795Z,1.30
2022-10-06T08:58:06.783Z,0.98
2022-10-06T09:03:16.600Z,1.20
2022-10-06T09:08:51.180Z,1.50
2022-10-06T09:13:55.592Z,1.50
2022-10-06T09:19:09.563Z,1.55
2022-10-06T09:24:16.744Z,1.67
2022-10-06T09:29:18.153Z,1.60
2022-10-06T09:34:35.964Z,1.20
2022-10-06T09:39:41.781Z,1.60
2022-10-06T09:50:12.494Z,1.38
2022-10-06T09:55:17.787Z,1.65
2022-10-06T10:00:32.787Z,1.33
2022-10-06T10:05:36.078Z,1.30
2022-10-06T10:10:37.665Z,1.30
2022-10-06T10:15:52.182Z,1.23
2022-10-06T10:20:55.707Z,1.55
2022-10-06T10:26:17.389Z,1.35
2022-10-06T10:31:42.730Z,1.30
2022-10-06T10:36:59.622Z,1.42
2022-10-06T10:42:02.747Z,1.40
2022-10-06T10:47:14.072Z,1.17
2022-10-06T10:52:17.469Z,1.08
2022-10-06T10:57:21.839Z,1.30
2022-10-06T11:02:23.340Z,1.00
2022-10-06T11:07:33.512Z,1.08
2022-10-06T11:12:57.509Z,1.45
2022-10-06T11:18:04.489Z,0.90
2022-10-06T11:23:23.892Z,0.93
2022-10-06T11:28:35.026Z,1.20
2022-10-06T11:33:41.853Z,1.35
2022-10-06T11:38:46.896Z,1.20
2022-10-06T11:44:10.352Z,1.50
2022-10-06T11:49:29.814Z,1.23
2022-10-06T11:54:56.474Z,1.40
2022-10-06T12:00:04.179Z,1.45
2022-10-06T12:05:47.146Z,1.40
2022-10-06T12:10:36.089Z,1.30
2022-10-06T12:22:01.108Z,1.00
2022-10-06T12:27:26.944Z,0.90
2022-10-06T12:32:39.541Z,1.30
2022-10-06T12:37:53.027Z,1.02
2022-10-06T12:43:13.440Z,1.08
2022-10-06T12:48:53.377Z,1.08
2022-10-06T12:54:19.418Z,1.10
2022-10-06T12:59:34.709Z,1.50
2022-10-06T13:04:40.796Z,1.45
2022-10-06T13:09:42.337Z,1.63
2022-10-06T13:14:43.701Z,1.90
2022-10-06T13:19:45.061Z,1.35
2022-10-06T13:24:46.485Z,1.40
2022-10-06T13:29:48.183Z,1.25
2022-10-06T13:34:49.541Z,1.73
2022-10-06T13:39:50.897Z,1.10
2022-10-06T13:44:57.307Z,1.17
2022-10-06T13:50:04.663Z,1.30
2022-10-06T13:55:14.472Z,1.27
2022-10-06T14:00:16.980Z,1.52
2022-10-06T14:05:24.413Z,1.50
2022-10-06T14:10:43.265Z,0.98
2022-10-06T14:16:04.630Z,1.10
2022-10-06T14:21:41.625Z,1.15
2022-10-06T14:26:43.709Z,1.17
2022-10-06T14:31:45.146Z,1.15
2022-10-06T14:36:47.828Z,1.45
2022-10-06T14:41:49.192Z,1.50
2022-10-06T14:46:50.879Z,1.10
2022-10-06T14:51:55.860Z,1.08
2022-10-06T14:56:57.237Z,0.93
2022-10-06T15:01:58.608Z,0.82
2022-10-06T15:07:18.288Z,0.70
2022-10-06T15:12:19.654Z,0.82
2022-10-06T15:17:22.894Z,0.90
2022-10-06T15:22:24.260Z,0.75
2022-10-06T15:27:43.958Z,0.70
2022-10-06T15:32:45.316Z,0.90
2022-10-06T15:37:46.676Z,1.23
2022-10-06T15:42:49.977Z,1.63
2022-10-06T15:47:52.108Z,1.20
2022-10-06T15:52:53.474Z,1.20
2022-10-06T15:57:54.989Z,1.52
2022-10-06T16:02:56.413Z,1.58
2022-10-06T16:07:57.801Z,1.27
2022-10-06T16:12:59.179Z,1.48
2022-10-06T16:18:00.533Z,1.15
2022-10-06T16:23:01.901Z,0.90
2022-10-06T16:28:03.311Z,1.20
2022-10-06T16:33:04.717Z,1.30
2022-10-06T16:38:06.073Z,1.08
2022-10-06T16:43:07.428Z,1.30
2022-10-06T16:48:08.793Z,1.10
2022-10-06T16:53:14.689Z,1.10
2022-10-06T16:58:18.317Z,0.95
2022-10-06T17:03:19.744Z,1.00
2022-10-06T17:08:24.205Z,1.00
2022-10-06T17:13:25.565Z,1.10
2022-10-06T17:18:26.935Z,1.10
2022-10-06T17:23:28.641Z,1.15
2022-10-06T17:28:30.273Z,1.42
2022-10-06T17:33:34.317Z,1.13
2022-10-06T17:38:41.212Z,1.00
2022-10-06T17:43:46.665Z,1.10
2022-10-06T17:48:49.776Z,1.40
2022-10-06T17:53:55.999Z,1.48
2022-10-06T17:58:58.077Z,1.70
2022-10-06T18:04:04.016Z,1.73
2022-10-06T18:14:17.962Z,1.55
2022-10-06T18:19:25.068Z,1.45
2022-10-06T18:24:27.524Z,1.30
2022-10-06T18:29:30.746Z,1.50
2022-10-06T18:39:53.926Z,1.58
2022-10-06T18:45:13.997Z,1.48
2022-10-06T18:50:16.564Z,1.50
2022-10-06T18:55:17.922Z,1.50
2022-10-06T19:00:19.415Z,1.67
2022-10-06T19:05:20.821Z,2.00
2022-10-06T19:10:22.243Z,2.15
2022-10-06T19:15:23.625Z,1.98
2022-10-06T19:20:24.995Z,2.03
2022-10-06T19:25:26.755Z,2.25
2022-10-06T19:30:28.144Z,1.90
2022-10-06T19:35:29.533Z,1.80
2022-10-06T19:40:30.893Z,1.90
2022-10-06T19:45:32.250Z,2.20
2022-10-06T19:50:33.613Z,1.80
2022-10-06T19:55:34.981Z,2.20
2022-10-06T20:00:36.552Z,1.95
2022-10-06T20:05:38.190Z,1.92
2022-10-06T20:10:39.656Z,2.05
2022-10-06T20:15:41.542Z,2.30
2022-10-06T20:20:42.905Z,2.28
2022-10-06T20:25:44.309Z,2.40
2022-10-06T20:30:50.043Z,2.30
2022-10-06T20:35:51.461Z,2.47
2022-10-06T20:40:52.817Z,2.20
2022-10-06T20:45:54.221Z,2.10
2022-10-06T20:50:56.232Z,2.00
2022-10-06T20:55:59.993Z,2.35
2022-10-06T21:01:06.110Z,2.30
2022-10-06T21:06:07.599Z,1.92
2022-10-06T21:11:09.441Z,2.22
2022-10-06T21:16:12.521Z,2.20
2022-10-06T21:21:14.017Z,2.00
2022-10-06T21:26:16.996Z,1.90
2022-10-06T21:31:19.638Z,2.03
2022-10-06T21:36:22.655Z,1.80
2022-10-06T21:41:29.460Z,1.92
2022-10-06T21:46:35.360Z,1.70
2022-10-06T21:56:38.941Z,2.05
2022-10-06T22:01:43.440Z,1.90
2022-10-06T22:06:45.231Z,2.00
2022-10-06T22:11:46.716Z,1.85
2022-10-06T22:16:48.160Z,1.88
2022-10-06T22:21:49.596Z,1.60
2022-10-06T22:26:51.027Z,1.65
2022-10-06T22:31:52.691Z,1.75
2022-10-06T22:36:54.196Z,1.90
2022-10-06T22:41:55.726Z,1.52
2022-10-06T22:46:57.224Z,1.90
2022-10-06T22:51:58.718Z,1.98
2022-10-06T22:57:00.172Z,1.98
2022-10-06T23:02:01.628Z,1.90
2022-10-06T23:07:03.072Z,1.98
2022-10-06T23:12:04.545Z,1.90
2022-10-06T23:17:05.981Z,1.90
2022-10-06T23:22:07.428Z,2.15
2022-10-06T23:27:08.860Z,1.95
2022-10-06T23:32:10.313Z,2.08
2022-10-06T23:37:11.761Z,2.00
2022-10-06T23:42:13.201Z,1.80
2022-10-06T23:47:14.634Z,2.25
2022-10-06T23:52:16.081Z,2.00
2022-10-06T23:57:17.516Z,2.17
